sensor_id;sensor_type;location;lat;lon;timestamp;P1;durP1;ratioP1;P2;durP2;ratioP2
17052;SDS011;8643;48.824;11.422;2023-09-19T00:00:47;5.15;;;1.90;;
17052;SDS011;8643;48.824;11.422;2023-09-19T00:03:16;3.95;;;2.05;;
17052;SDS011;8643;48.824;11.422;2023-09-19T00:05:45;4.90;;;2.13;;
17052;SDS011;8643;48.824;11.422;2023-09-19T00:08:14;4.15;;;1.92;;
17052;SDS011;8643;48.824;11.422;2023-09-19T00:10:43;4.05;;;2.13;;
17052;SDS011;8643;48.824;11.422;2023-09-19T00:13:11;3.50;;;1.98;;
17052;SDS011;8643;48.824;11.422;2023-09-19T00:15:44;5.38;;;1.90;;
17052;SDS011;8643;48.824;11.422;2023-09-19T00:18:16;4.57;;;1.80;;
17052;SDS011;8643;48.824;11.422;2023-09-19T00:20:47;4.72;;;2.05;;
17052;SDS011;8643;48.824;11.422;2023-09-19T00:23:16;3.63;;;1.65;;
17052;SDS011;8643;48.824;11.422;2023-09-19T00:25:46;5.90;;;1.80;;
17052;SDS011;8643;48.824;11.422;2023-09-19T00:28:15;4.55;;;1.90;;
17052;SDS011;8643;48.824;11.422;2023-09-19T00:30:48;3.38;;;2.05;;
17052;SDS011;8643;48.824;11.422;2023-09-19T00:33:17;4.85;;;1.88;;
17052;SDS011;8643;48.824;11.422;2023-09-19T00:35:46;3.78;;;1.85;;
17052;SDS011;8643;48.824;11.422;2023-09-19T00:38:16;7.45;;;1.92;;
17052;SDS011;8643;48.824;11.422;2023-09-19T00:40:48;2.85;;;1.90;;
17052;SDS011;8643;48.824;11.422;2023-09-19T00:43:17;4.25;;;1.65;;
17052;SDS011;8643;48.824;11.422;2023-09-19T00:45:48;2.78;;;1.70;;
17052;SDS011;8643;48.824;11.422;2023-09-19T00:48:19;3.40;;;1.98;;
17052;SDS011;8643;48.824;11.422;2023-09-19T00:50:49;4.05;;;2.03;;
17052;SDS011;8643;48.824;11.422;2023-09-19T00:53:21;3.58;;;1.77;;
17052;SDS011;8643;48.824;11.422;2023-09-19T00:55:53;3.83;;;2.03;;
17052;SDS011;8643;48.824;11.422;2023-09-19T00:58:22;2.55;;;2.10;;
17052;SDS011;8643;48.824;11.422;2023-09-19T01:00:52;3.05;;;1.90;;
17052;SDS011;8643;48.824;11.422;2023-09-19T01:03:22;4.93;;;1.92;;
17052;SDS011;8643;48.824;11.422;2023-09-19T01:05:51;9.30;;;2.17;;
17052;SDS011;8643;48.824;11.422;2023-09-19T01:08:20;3.95;;;2.10;;
17052;SDS011;8643;48.824;11.422;2023-09-19T01:10:51;3.83;;;2.03;;
17052;SDS011;8643;48.824;11.422;2023-09-19T01:13:29;5.13;;;2.30;;
17052;SDS011;8643;48.824;11.422;2023-09-19T01:16:17;5.75;;;2.10;;
17052;SDS011;8643;48.824;11.422;2023-09-19T01:19:02;6.88;;;2.28;;
17052;SDS011;8643;48.824;11.422;2023-09-19T01:21:59;3.78;;;2.40;;
17052;SDS011;8643;48.824;11.422;2023-09-19T01:24:48;4.10;;;2.08;;
17052;SDS011;8643;48.824;11.422;2023-09-19T01:28:04;5.90;;;2.25;;
17052;SDS011;8643;48.824;11.422;2023-09-19T01:30:51;5.50;;;2.33;;
17052;SDS011;8643;48.824;11.422;2023-09-19T01:33:26;5.03;;;2.35;;
17052;SDS011;8643;48.824;11.422;2023-09-19T01:36:00;5.40;;;2.67;;
17052;SDS011;8643;48.824;11.422;2023-09-19T01:38:31;3.10;;;2.30;;
17052;SDS011;8643;48.824;11.422;2023-09-19T01:41:03;5.82;;;2.30;;
17052;SDS011;8643;48.824;11.422;2023-09-19T01:43:41;6.38;;;2.70;;
17052;SDS011;8643;48.824;11.422;2023-09-19T01:46:14;4.72;;;2.30;;
17052;SDS011;8643;48.824;11.422;2023-09-19T01:48:54;8.02;;;2.60;;
17052;SDS011;8643;48.824;11.422;2023-09-19T01:51:40;3.03;;;1.80;;
17052;SDS011;8643;48.824;11.422;2023-09-19T01:54:23;5.70;;;3.13;;
17052;SDS011;8643;48.824;11.422;2023-09-19T01:56:59;5.75;;;2.55;;
17052;SDS011;8643;48.824;11.422;2023-09-19T01:59:36;6.38;;;2.50;;
17052;SDS011;8643;48.824;11.422;2023-09-19T02:02:14;4.88;;;2.40;;
17052;SDS011;8643;48.824;11.422;2023-09-19T02:04:45;6.68;;;2.42;;
17052;SDS011;8643;48.824;11.422;2023-09-19T02:07:14;5.43;;;2.15;;
17052;SDS011;8643;48.824;11.422;2023-09-19T02:09:43;4.85;;;2.58;;
17052;SDS011;8643;48.824;11.422;2023-09-19T02:12:14;5.05;;;2.38;;
17052;SDS011;8643;48.824;11.422;2023-09-19T02:14:43;4.50;;;2.70;;
17052;SDS011;8643;48.824;11.422;2023-09-19T02:17:11;4.63;;;2.85;;
17052;SDS011;8643;48.824;11.422;2023-09-19T02:19:41;5.68;;;2.60;;
17052;SDS011;8643;48.824;11.422;2023-09-19T02:22:10;7.05;;;2.22;;
17052;SDS011;8643;48.824;11.422;2023-09-19T02:24:38;3.25;;;2.58;;
17052;SDS011;8643;48.824;11.422;2023-09-19T02:27:07;5.00;;;2.97;;
17052;SDS011;8643;48.824;11.422;2023-09-19T02:29:35;5.63;;;2.63;;
17052;SDS011;8643;48.824;11.422;2023-09-19T02:32:04;6.60;;;2.60;;
17052;SDS011;8643;48.824;11.422;2023-09-19T02:34:34;5.75;;;2.60;;
17052;SDS011;8643;48.824;11.422;2023-09-19T02:37:05;9.60;;;2.60;;
17052;SDS011;8643;48.824;11.422;2023-09-19T02:39:35;6.45;;;2.75;;
17052;SDS011;8643;48.824;11.422;2023-09-19T02:42:04;4.85;;;2.60;;
17052;SDS011;8643;48.824;11.422;2023-09-19T02:44:32;3.90;;;2.47;;
17052;SDS011;8643;48.824;11.422;2023-09-19T02:47:02;7.25;;;2.60;;
17052;SDS011;8643;48.824;11.422;2023-09-19T02:49:31;5.60;;;2.58;;
17052;SDS011;8643;48.824;11.422;2023-09-19T02:52:04;9.27;;;3.17;;
17052;SDS011;8643;48.824;11.422;2023-09-19T02:54:39;4.45;;;2.53;;
17052;SDS011;8643;48.824;11.422;2023-09-19T02:57:12;4.70;;;2.70;;
17052;SDS011;8643;48.824;11.422;2023-09-19T02:59:43;6.35;;;2.53;;
17052;SDS011;8643;48.824;11.422;2023-09-19T03:02:11;5.13;;;2.70;;
17052;SDS011;8643;48.824;11.422;2023-09-19T03:04:40;4.25;;;2.42;;
17052;SDS011;8643;48.824;11.422;2023-09-19T03:07:10;6.15;;;2.70;;
17052;SDS011;8643;48.824;11.422;2023-09-19T03:09:39;4.35;;;2.70;;
17052;SDS011;8643;48.824;11.422;2023-09-19T03:12:09;4.57;;;2.67;;
17052;SDS011;8643;48.824;11.422;2023-09-19T03:14:38;4.97;;;2.78;;
17052;SDS011;8643;48.824;11.422;2023-09-19T03:17:07;10.10;;;3.00;;
17052;SDS011;8643;48.824;11.422;2023-09-19T03:19:36;4.97;;;2.65;;
17052;SDS011;8643;48.824;11.422;2023-09-19T03:22:06;8.73;;;2.47;;
17052;SDS011;8643;48.824;11.422;2023-09-19T03:24:36;6.80;;;2.60;;
17052;SDS011;8643;48.824;11.422;2023-09-19T03:27:05;5.10;;;2.50;;
17052;SDS011;8643;48.824;11.422;2023-09-19T03:29:35;6.95;;;2.53;;
17052;SDS011;8643;48.824;11.422;2023-09-19T03:32:05;2.78;;;2.05;;
17052;SDS011;8643;48.824;11.422;2023-09-19T03:34:36;4.53;;;2.20;;
17052;SDS011;8643;48.824;11.422;2023-09-19T03:37:10;4.10;;;2.08;;
17052;SDS011;8643;48.824;11.422;2023-09-19T03:39:40;2.92;;;1.80;;
17052;SDS011;8643;48.824;11.422;2023-09-19T03:42:09;4.25;;;1.90;;
17052;SDS011;8643;48.824;11.422;2023-09-19T03:44:37;3.15;;;2.10;;
17052;SDS011;8643;48.824;11.422;2023-09-19T03:47:06;3.08;;;1.90;;
17052;SDS011;8643;48.824;11.422;2023-09-19T03:49:34;6.35;;;2.38;;
17052;SDS011;8643;48.824;11.422;2023-09-19T03:52:03;4.43;;;2.15;;
17052;SDS011;8643;48.824;11.422;2023-09-19T03:54:32;4.45;;;2.00;;
17052;SDS011;8643;48.824;11.422;2023-09-19T03:57:02;4.32;;;2.10;;
17052;SDS011;8643;48.824;11.422;2023-09-19T03:59:32;3.42;;;1.98;;
17052;SDS011;8643;48.824;11.422;2023-09-19T04:02:01;2.78;;;1.70;;
17052;SDS011;8643;48.824;11.422;2023-09-19T04:04:31;5.78;;;1.95;;
17052;SDS011;8643;48.824;11.422;2023-09-19T04:07:00;2.40;;;1.60;;
17052;SDS011;8643;48.824;11.422;2023-09-19T04:09:29;2.50;;;1.60;;
17052;SDS011;8643;48.824;11.422;2023-09-19T04:11:57;2.80;;;1.60;;
17052;SDS011;8643;48.824;11.422;2023-09-19T04:14:27;4.55;;;1.65;;
17052;SDS011;8643;48.824;11.422;2023-09-19T04:16:56;2.50;;;1.50;;
17052;SDS011;8643;48.824;11.422;2023-09-19T04:19:25;4.03;;;1.77;;
17052;SDS011;8643;48.824;11.422;2023-09-19T04:21:53;3.40;;;2.15;;
17052;SDS011;8643;48.824;11.422;2023-09-19T04:24:22;3.97;;;1.85;;
17052;SDS011;8643;48.824;11.422;2023-09-19T04:26:51;2.85;;;1.75;;
17052;SDS011;8643;48.824;11.422;2023-09-19T04:29:19;7.88;;;1.90;;
17052;SDS011;8643;48.824;11.422;2023-09-19T04:31:49;3.92;;;1.55;;
17052;SDS011;8643;48.824;11.422;2023-09-19T04:34:18;2.30;;;1.50;;
17052;SDS011;8643;48.824;11.422;2023-09-19T04:36:46;6.43;;;2.10;;
17052;SDS011;8643;48.824;11.422;2023-09-19T04:39:15;4.53;;;1.90;;
17052;SDS011;8643;48.824;11.422;2023-09-19T04:41:44;3.75;;;1.90;;
17052;SDS011;8643;48.824;11.422;2023-09-19T04:44:14;4.57;;;1.80;;
17052;SDS011;8643;48.824;11.422;2023-09-19T04:46:43;4.90;;;2.03;;
17052;SDS011;8643;48.824;11.422;2023-09-19T04:49:14;3.13;;;1.75;;
17052;SDS011;8643;48.824;11.422;2023-09-19T04:51:42;4.15;;;2.25;;
17052;SDS011;8643;48.824;11.422;2023-09-19T04:54:13;3.83;;;1.95;;
17052;SDS011;8643;48.824;11.422;2023-09-19T04:56:42;2.58;;;1.95;;
17052;SDS011;8643;48.824;11.422;2023-09-19T04:59:10;5.20;;;2.10;;
17052;SDS011;8643;48.824;11.422;2023-09-19T05:01:39;2.58;;;1.90;;
17052;SDS011;8643;48.824;11.422;2023-09-19T05:04:07;5.07;;;2.35;;
17052;SDS011;8643;48.824;11.422;2023-09-19T05:06:37;4.22;;;2.60;;
17052;SDS011;8643;48.824;11.422;2023-09-19T05:09:08;4.80;;;2.60;;
17052;SDS011;8643;48.824;11.422;2023-09-19T05:11:37;6.70;;;2.90;;
17052;SDS011;8643;48.824;11.422;2023-09-19T05:14:06;6.68;;;2.95;;
17052;SDS011;8643;48.824;11.422;2023-09-19T05:16:34;7.20;;;3.28;;
17052;SDS011;8643;48.824;11.422;2023-09-19T05:19:04;5.28;;;2.90;;
17052;SDS011;8643;48.824;11.422;2023-09-19T05:21:32;6.25;;;2.90;;
17052;SDS011;8643;48.824;11.422;2023-09-19T05:24:02;8.93;;;2.97;;
17052;SDS011;8643;48.824;11.422;2023-09-19T05:26:36;9.65;;;3.28;;
17052;SDS011;8643;48.824;11.422;2023-09-19T05:29:06;6.65;;;3.17;;
17052;SDS011;8643;48.824;11.422;2023-09-19T05:31:35;4.90;;;2.90;;
17052;SDS011;8643;48.824;11.422;2023-09-19T05:34:07;6.97;;;4.03;;
17052;SDS011;8643;48.824;11.422;2023-09-19T05:36:36;6.97;;;3.38;;
17052;SDS011;8643;48.824;11.422;2023-09-19T05:39:07;6.55;;;3.35;;
17052;SDS011;8643;48.824;11.422;2023-09-19T05:41:35;6.72;;;3.55;;
17052;SDS011;8643;48.824;11.422;2023-09-19T05:44:06;6.88;;;3.33;;
17052;SDS011;8643;48.824;11.422;2023-09-19T05:46:35;10.93;;;4.32;;
17052;SDS011;8643;48.824;11.422;2023-09-19T05:49:04;8.27;;;3.88;;
17052;SDS011;8643;48.824;11.422;2023-09-19T05:51:33;6.85;;;3.70;;
17052;SDS011;8643;48.824;11.422;2023-09-19T05:54:02;7.35;;;4.20;;
17052;SDS011;8643;48.824;11.422;2023-09-19T05:56:33;9.00;;;4.47;;
17052;SDS011;8643;48.824;11.422;2023-09-19T05:59:01;8.48;;;4.35;;
17052;SDS011;8643;48.824;11.422;2023-09-19T06:01:31;8.50;;;4.00;;
17052;SDS011;8643;48.824;11.422;2023-09-19T06:04:00;6.43;;;3.80;;
17052;SDS011;8643;48.824;11.422;2023-09-19T06:06:31;6.90;;;3.58;;
17052;SDS011;8643;48.824;11.422;2023-09-19T06:09:00;12.20;;;4.20;;
17052;SDS011;8643;48.824;11.422;2023-09-19T06:11:33;7.55;;;4.10;;
17052;SDS011;8643;48.824;11.422;2023-09-19T06:14:02;7.25;;;4.05;;
17052;SDS011;8643;48.824;11.422;2023-09-19T06:16:30;10.25;;;4.40;;
17052;SDS011;8643;48.824;11.422;2023-09-19T06:18:59;8.20;;;3.90;;
17052;SDS011;8643;48.824;11.422;2023-09-19T06:21:28;8.25;;;4.10;;
17052;SDS011;8643;48.824;11.422;2023-09-19T06:23:56;7.80;;;4.20;;
17052;SDS011;8643;48.824;11.422;2023-09-19T06:26:25;7.05;;;4.30;;
17052;SDS011;8643;48.824;11.422;2023-09-19T06:28:56;7.85;;;4.47;;
17052;SDS011;8643;48.824;11.422;2023-09-19T06:31:26;8.45;;;4.30;;
17052;SDS011;8643;48.824;11.422;2023-09-19T06:33:54;6.90;;;4.55;;
17052;SDS011;8643;48.824;11.422;2023-09-19T06:36:23;8.23;;;4.22;;
17052;SDS011;8643;48.824;11.422;2023-09-19T06:38:51;7.15;;;3.92;;
17052;SDS011;8643;48.824;11.422;2023-09-19T06:41:20;8.40;;;4.03;;
17052;SDS011;8643;48.824;11.422;2023-09-19T06:43:51;8.77;;;4.10;;
17052;SDS011;8643;48.824;11.422;2023-09-19T06:46:22;8.70;;;3.97;;
17052;SDS011;8643;48.824;11.422;2023-09-19T06:48:51;6.65;;;3.38;;
17052;SDS011;8643;48.824;11.422;2023-09-19T06:51:19;9.82;;;4.65;;
17052;SDS011;8643;48.824;11.422;2023-09-19T06:53:48;4.28;;;2.97;;
17052;SDS011;8643;48.824;11.422;2023-09-19T06:56:18;6.57;;;3.30;;
17052;SDS011;8643;48.824;11.422;2023-09-19T06:58:47;6.95;;;3.10;;
17052;SDS011;8643;48.824;11.422;2023-09-19T07:01:15;4.72;;;3.10;;
17052;SDS011;8643;48.824;11.422;2023-09-19T07:03:46;4.60;;;2.85;;
17052;SDS011;8643;48.824;11.422;2023-09-19T07:06:15;5.22;;;3.05;;
17052;SDS011;8643;48.824;11.422;2023-09-19T07:08:44;4.10;;;2.60;;
17052;SDS011;8643;48.824;11.422;2023-09-19T07:11:12;4.32;;;2.47;;
17052;SDS011;8643;48.824;11.422;2023-09-19T07:13:42;4.50;;;2.30;;
17052;SDS011;8643;48.824;11.422;2023-09-19T07:16:10;5.32;;;2.60;;
17052;SDS011;8643;48.824;11.422;2023-09-19T07:18:55;4.00;;;2.50;;
17052;SDS011;8643;48.824;11.422;2023-09-19T07:21:24;3.72;;;2.55;;
17052;SDS011;8643;48.824;11.422;2023-09-19T07:23:53;7.75;;;2.60;;
17052;SDS011;8643;48.824;11.422;2023-09-19T07:26:21;5.72;;;2.50;;
17052;SDS011;8643;48.824;11.422;2023-09-19T07:28:50;5.25;;;2.40;;
17052;SDS011;8643;48.824;11.422;2023-09-19T07:31:20;4.40;;;2.30;;
17052;SDS011;8643;48.824;11.422;2023-09-19T07:33:49;7.25;;;2.47;;
17052;SDS011;8643;48.824;11.422;2023-09-19T07:36:19;5.53;;;2.45;;
17052;SDS011;8643;48.824;11.422;2023-09-19T07:38:47;4.78;;;2.30;;
17052;SDS011;8643;48.824;11.422;2023-09-19T07:41:16;5.18;;;2.60;;
17052;SDS011;8643;48.824;11.422;2023-09-19T07:43:44;5.75;;;2.30;;
17052;SDS011;8643;48.824;11.422;2023-09-19T07:46:13;4.15;;;2.20;;
17052;SDS011;8643;48.824;11.422;2023-09-19T07:48:41;3.30;;;2.20;;
17052;SDS011;8643;48.824;11.422;2023-09-19T07:51:15;3.65;;;2.13;;
17052;SDS011;8643;48.824;11.422;2023-09-19T07:53:45;3.95;;;2.03;;
17052;SDS011;8643;48.824;11.422;2023-09-19T07:56:14;3.78;;;2.10;;
17052;SDS011;8643;48.824;11.422;2023-09-19T07:58:46;4.68;;;1.88;;
17052;SDS011;8643;48.824;11.422;2023-09-19T08:01:15;4.35;;;1.90;;
17052;SDS011;8643;48.824;11.422;2023-09-19T08:03:43;4.70;;;1.90;;
17052;SDS011;8643;48.824;11.422;2023-09-19T08:06:12;6.50;;;1.77;;
17052;SDS011;8643;48.824;11.422;2023-09-19T08:08:40;3.45;;;1.58;;
17052;SDS011;8643;48.824;11.422;2023-09-19T08:11:10;3.58;;;1.70;;
17052;SDS011;8643;48.824;11.422;2023-09-19T08:13:39;4.40;;;1.58;;
17052;SDS011;8643;48.824;11.422;2023-09-19T08:16:10;2.30;;;1.50;;
17052;SDS011;8643;48.824;11.422;2023-09-19T08:18:39;4.68;;;1.70;;
17052;SDS011;8643;48.824;11.422;2023-09-19T08:21:07;2.10;;;1.42;;
17052;SDS011;8643;48.824;11.422;2023-09-19T08:23:37;5.70;;;1.80;;
17052;SDS011;8643;48.824;11.422;2023-09-19T08:26:06;4.72;;;1.73;;
17052;SDS011;8643;48.824;11.422;2023-09-19T08:28:36;3.88;;;1.80;;
17052;SDS011;8643;48.824;11.422;2023-09-19T08:31:07;3.17;;;1.65;;
17052;SDS011;8643;48.824;11.422;2023-09-19T08:33:37;3.80;;;1.67;;
17052;SDS011;8643;48.824;11.422;2023-09-19T08:36:07;7.80;;;1.55;;
17052;SDS011;8643;48.824;11.422;2023-09-19T08:38:36;2.97;;;1.15;;
17052;SDS011;8643;48.824;11.422;2023-09-19T08:41:05;2.67;;;1.20;;
17052;SDS011;8643;48.824;11.422;2023-09-19T08:43:36;3.55;;;1.38;;
17052;SDS011;8643;48.824;11.422;2023-09-19T08:46:08;3.35;;;1.35;;
17052;SDS011;8643;48.824;11.422;2023-09-19T08:48:41;3.30;;;1.23;;
17052;SDS011;8643;48.824;11.422;2023-09-19T08:51:18;2.80;;;1.40;;
17052;SDS011;8643;48.824;11.422;2023-09-19T08:53:55;3.47;;;1.30;;
17052;SDS011;8643;48.824;11.422;2023-09-19T08:56:32;2.47;;;1.20;;
17052;SDS011;8643;48.824;11.422;2023-09-19T08:59:03;3.03;;;1.50;;
17052;SDS011;8643;48.824;11.422;2023-09-19T09:01:34;4.03;;;1.33;;
17052;SDS011;8643;48.824;11.422;2023-09-19T09:04:08;3.60;;;1.60;;
17052;SDS011;8643;48.824;11.422;2023-09-19T09:06:40;2.38;;;1.80;;
17052;SDS011;8643;48.824;11.422;2023-09-19T09:09:14;3.25;;;1.75;;
17052;SDS011;8643;48.824;11.422;2023-09-19T09:11:44;3.00;;;1.52;;
17052;SDS011;8643;48.824;11.422;2023-09-19T09:14:14;2.33;;;1.65;;
17052;SDS011;8643;48.824;11.422;2023-09-19T09:16:43;4.28;;;1.80;;
17052;SDS011;8643;48.824;11.422;2023-09-19T09:19:12;2.67;;;1.67;;
17052;SDS011;8643;48.824;11.422;2023-09-19T09:21:41;4.78;;;1.48;;
17052;SDS011;8643;48.824;11.422;2023-09-19T09:24:27;3.10;;;1.50;;
17052;SDS011;8643;48.824;11.422;2023-09-19T09:26:57;3.20;;;1.35;;
17052;SDS011;8643;48.824;11.422;2023-09-19T09:29:43;3.08;;;1.90;;
17052;SDS011;8643;48.824;11.422;2023-09-19T09:32:16;2.40;;;1.25;;
17052;SDS011;8643;48.824;11.422;2023-09-19T09:34:50;2.05;;;1.30;;
17052;SDS011;8643;48.824;11.422;2023-09-19T09:37:25;1.30;;;1.15;;
17052;SDS011;8643;48.824;11.422;2023-09-19T09:39:57;2.42;;;1.30;;
17052;SDS011;8643;48.824;11.422;2023-09-19T09:42:46;1.92;;;1.10;;
17052;SDS011;8643;48.824;11.422;2023-09-19T09:45:21;3.10;;;1.30;;
17052;SDS011;8643;48.824;11.422;2023-09-19T09:48:04;6.88;;;1.33;;
17052;SDS011;8643;48.824;11.422;2023-09-19T09:50:46;1.95;;;1.20;;
17052;SDS011;8643;48.824;11.422;2023-09-19T09:53:24;2.22;;;1.25;;
17052;SDS011;8643;48.824;11.422;2023-09-19T09:56:01;3.10;;;1.50;;
17052;SDS011;8643;48.824;11.422;2023-09-19T09:58:36;4.10;;;1.17;;
17052;SDS011;8643;48.824;11.422;2023-09-19T10:01:18;1.80;;;1.40;;
17052;SDS011;8643;48.824;11.422;2023-09-19T10:03:47;5.07;;;1.55;;
17052;SDS011;8643;48.824;11.422;2023-09-19T10:06:18;7.45;;;4.75;;
17052;SDS011;8643;48.824;11.422;2023-09-19T10:08:57;4.40;;;1.33;;
17052;SDS011;8643;48.824;11.422;2023-09-19T10:11:39;1.70;;;1.27;;
17052;SDS011;8643;48.824;11.422;2023-09-19T10:14:11;1.95;;;1.17;;
17052;SDS011;8643;48.824;11.422;2023-09-19T10:16:46;2.47;;;1.30;;
17052;SDS011;8643;48.824;11.422;2023-09-19T10:19:19;2.38;;;1.30;;
17052;SDS011;8643;48.824;11.422;2023-09-19T10:21:53;1.20;;;1.00;;
17052;SDS011;8643;48.824;11.422;2023-09-19T10:24:23;3.28;;;1.20;;
17052;SDS011;8643;48.824;11.422;2023-09-19T10:26:59;1.42;;;1.20;;
17052;SDS011;8643;48.824;11.422;2023-09-19T10:29:30;2.65;;;1.10;;
17052;SDS011;8643;48.824;11.422;2023-09-19T10:32:05;2.45;;;1.00;;
17052;SDS011;8643;48.824;11.422;2023-09-19T10:34:35;3.10;;;1.10;;
17052;SDS011;8643;48.824;11.422;2023-09-19T10:37:08;2.00;;;1.10;;
17052;SDS011;8643;48.824;11.422;2023-09-19T10:39:41;2.33;;;1.55;;
17052;SDS011;8643;48.824;11.422;2023-09-19T10:42:15;3.50;;;1.08;;
17052;SDS011;8643;48.824;11.422;2023-09-19T10:44:49;4.18;;;1.23;;
17052;SDS011;8643;48.824;11.422;2023-09-19T10:47:23;2.47;;;1.20;;
17052;SDS011;8643;48.824;11.422;2023-09-19T10:49:51;2.05;;;1.10;;
17052;SDS011;8643;48.824;11.422;2023-09-19T10:52:20;2.95;;;1.02;;
17052;SDS011;8643;48.824;11.422;2023-09-19T10:54:54;3.65;;;1.05;;
17052;SDS011;8643;48.824;11.422;2023-09-19T10:57:27;1.85;;;1.10;;
17052;SDS011;8643;48.824;11.422;2023-09-19T11:00:03;2.75;;;0.95;;
17052;SDS011;8643;48.824;11.422;2023-09-19T11:06:01;1.20;;;1.08;;
17052;SDS011;8643;48.824;11.422;2023-09-19T11:08:55;2.28;;;1.10;;
17052;SDS011;8643;48.824;11.422;2023-09-19T11:11:43;3.60;;;0.80;;
17052;SDS011;8643;48.824;11.422;2023-09-19T11:14:30;3.25;;;1.00;;
17052;SDS011;8643;48.824;11.422;2023-09-19T11:20:25;1.30;;;0.90;;
17052;SDS011;8643;48.824;11.422;2023-09-19T11:23:17;2.63;;;1.08;;
17052;SDS011;8643;48.824;11.422;2023-09-19T11:25:53;3.20;;;1.00;;
17052;SDS011;8643;48.824;11.422;2023-09-19T11:28:28;2.40;;;1.10;;
17052;SDS011;8643;48.824;11.422;2023-09-19T11:40:37;1.20;;;0.80;;
17052;SDS011;8643;48.824;11.422;2023-09-19T11:46:04;2.00;;;1.00;;
17052;SDS011;8643;48.824;11.422;2023-09-19T11:48:33;2.33;;;1.00;;
17052;SDS011;8643;48.824;11.422;2023-09-19T11:51:11;1.60;;;1.00;;
17052;SDS011;8643;48.824;11.422;2023-09-19T11:53:51;2.17;;;1.10;;
17052;SDS011;8643;48.824;11.422;2023-09-19T11:56:22;4.05;;;1.05;;
17052;SDS011;8643;48.824;11.422;2023-09-19T11:58:53;2.20;;;1.00;;
17052;SDS011;8643;48.824;11.422;2023-09-19T12:01:25;2.33;;;1.10;;
17052;SDS011;8643;48.824;11.422;2023-09-19T12:04:01;3.63;;;1.08;;
17052;SDS011;8643;48.824;11.422;2023-09-19T12:06:31;2.80;;;1.00;;
17052;SDS011;8643;48.824;11.422;2023-09-19T12:09:04;1.88;;;1.10;;
17052;SDS011;8643;48.824;11.422;2023-09-19T12:11:41;3.42;;;1.00;;
17052;SDS011;8643;48.824;11.422;2023-09-19T12:14:12;3.80;;;1.13;;
17052;SDS011;8643;48.824;11.422;2023-09-19T12:16:54;3.03;;;1.10;;
17052;SDS011;8643;48.824;11.422;2023-09-19T12:19:27;2.17;;;1.13;;
17052;SDS011;8643;48.824;11.422;2023-09-19T12:21:59;2.78;;;1.30;;
17052;SDS011;8643;48.824;11.422;2023-09-19T12:24:33;1.15;;;0.93;;
17052;SDS011;8643;48.824;11.422;2023-09-19T12:27:05;3.08;;;1.25;;
17052;SDS011;8643;48.824;11.422;2023-09-19T12:29:42;1.92;;;1.20;;
17052;SDS011;8643;48.824;11.422;2023-09-19T12:32:12;2.10;;;1.33;;
17052;SDS011;8643;48.824;11.422;2023-09-19T12:34:49;3.15;;;1.30;;
17052;SDS011;8643;48.824;11.422;2023-09-19T12:37:21;4.97;;;1.23;;
17052;SDS011;8643;48.824;11.422;2023-09-19T12:40:04;4.07;;;1.40;;
17052;SDS011;8643;48.824;11.422;2023-09-19T12:42:44;2.70;;;1.20;;
17052;SDS011;8643;48.824;11.422;2023-09-19T12:45:15;2.00;;;1.17;;
17052;SDS011;8643;48.824;11.422;2023-09-19T12:50:59;1.95;;;1.17;;
17052;SDS011;8643;48.824;11.422;2023-09-19T12:53:34;2.20;;;1.35;;
17052;SDS011;8643;48.824;11.422;2023-09-19T12:56:09;1.38;;;1.10;;
17052;SDS011;8643;48.824;11.422;2023-09-19T12:58:50;2.10;;;1.23;;
17052;SDS011;8643;48.824;11.422;2023-09-19T13:01:21;4.47;;;1.23;;
17052;SDS011;8643;48.824;11.422;2023-09-19T13:04:10;2.85;;;1.20;;
17052;SDS011;8643;48.824;11.422;2023-09-19T13:06:47;1.92;;;1.10;;
17052;SDS011;8643;48.824;11.422;2023-09-19T13:09:18;2.00;;;1.25;;
17052;SDS011;8643;48.824;11.422;2023-09-19T13:11:50;4.00;;;1.17;;
17052;SDS011;8643;48.824;11.422;2023-09-19T13:14:21;2.72;;;1.23;;
17052;SDS011;8643;48.824;11.422;2023-09-19T13:16:54;2.22;;;1.30;;
17052;SDS011;8643;48.824;11.422;2023-09-19T13:19:34;2.13;;;1.20;;
17052;SDS011;8643;48.824;11.422;2023-09-19T13:25:09;2.35;;;1.48;;
17052;SDS011;8643;48.824;11.422;2023-09-19T13:27:44;1.70;;;1.20;;
17052;SDS011;8643;48.824;11.422;2023-09-19T13:30:15;1.90;;;1.30;;
17052;SDS011;8643;48.824;11.422;2023-09-19T13:32:43;1.42;;;0.90;;
17052;SDS011;8643;48.824;11.422;2023-09-19T13:35:14;2.17;;;1.10;;
17052;SDS011;8643;48.824;11.422;2023-09-19T13:37:46;1.35;;;1.00;;
17052;SDS011;8643;48.824;11.422;2023-09-19T13:40:15;1.40;;;1.08;;
17052;SDS011;8643;48.824;11.422;2023-09-19T13:42:45;1.30;;;0.90;;
17052;SDS011;8643;48.824;11.422;2023-09-19T13:45:14;2.03;;;1.02;;
17052;SDS011;8643;48.824;11.422;2023-09-19T13:47:44;1.75;;;1.20;;
17052;SDS011;8643;48.824;11.422;2023-09-19T13:50:13;1.60;;;0.70;;
17052;SDS011;8643;48.824;11.422;2023-09-19T13:52:43;2.28;;;1.10;;
17052;SDS011;8643;48.824;11.422;2023-09-19T13:55:13;2.35;;;1.13;;
17052;SDS011;8643;48.824;11.422;2023-09-19T13:57:47;2.03;;;1.13;;
17052;SDS011;8643;48.824;11.422;2023-09-19T14:00:16;7.13;;;1.23;;
17052;SDS011;8643;48.824;11.422;2023-09-19T14:02:45;2.70;;;1.10;;
17052;SDS011;8643;48.824;11.422;2023-09-19T14:05:15;2.67;;;1.10;;
17052;SDS011;8643;48.824;11.422;2023-09-19T14:07:45;2.13;;;1.20;;
17052;SDS011;8643;48.824;11.422;2023-09-19T14:10:14;2.50;;;1.10;;
17052;SDS011;8643;48.824;11.422;2023-09-19T14:12:44;1.50;;;0.93;;
17052;SDS011;8643;48.824;11.422;2023-09-19T14:15:15;1.52;;;1.00;;
17052;SDS011;8643;48.824;11.422;2023-09-19T14:17:44;2.35;;;1.20;;
17052;SDS011;8643;48.824;11.422;2023-09-19T14:20:12;3.58;;;1.20;;
17052;SDS011;8643;48.824;11.422;2023-09-19T14:22:42;2.88;;;0.98;;
17052;SDS011;8643;48.824;11.422;2023-09-19T14:25:11;2.10;;;0.98;;
17052;SDS011;8643;48.824;11.422;2023-09-19T14:27:40;1.40;;;1.10;;
17052;SDS011;8643;48.824;11.422;2023-09-19T14:30:08;2.45;;;1.00;;
17052;SDS011;8643;48.824;11.422;2023-09-19T14:32:39;1.77;;;1.20;;
17052;SDS011;8643;48.824;11.422;2023-09-19T14:35:08;3.60;;;1.42;;
17052;SDS011;8643;48.824;11.422;2023-09-19T14:37:38;2.42;;;1.20;;
17052;SDS011;8643;48.824;11.422;2023-09-19T14:40:07;1.55;;;1.00;;
17052;SDS011;8643;48.824;11.422;2023-09-19T14:42:39;2.63;;;1.00;;
17052;SDS011;8643;48.824;11.422;2023-09-19T14:45:10;3.13;;;1.40;;
17052;SDS011;8643;48.824;11.422;2023-09-19T14:47:42;1.08;;;0.90;;
17052;SDS011;8643;48.824;11.422;2023-09-19T14:50:11;2.13;;;1.10;;
17052;SDS011;8643;48.824;11.422;2023-09-19T14:52:41;1.65;;;1.02;;
17052;SDS011;8643;48.824;11.422;2023-09-19T14:55:11;2.85;;;1.20;;
17052;SDS011;8643;48.824;11.422;2023-09-19T14:57:41;3.22;;;1.10;;
17052;SDS011;8643;48.824;11.422;2023-09-19T15:00:12;1.42;;;1.08;;
17052;SDS011;8643;48.824;11.422;2023-09-19T15:02:44;2.10;;;1.13;;
17052;SDS011;8643;48.824;11.422;2023-09-19T15:05:15;3.47;;;1.15;;
17052;SDS011;8643;48.824;11.422;2023-09-19T15:07:46;2.08;;;1.05;;
17052;SDS011;8643;48.824;11.422;2023-09-19T15:10:15;2.05;;;1.05;;
17052;SDS011;8643;48.824;11.422;2023-09-19T15:12:45;1.88;;;1.10;;
17052;SDS011;8643;48.824;11.422;2023-09-19T15:15:14;2.97;;;1.10;;
17052;SDS011;8643;48.824;11.422;2023-09-19T15:17:44;3.28;;;1.10;;
17052;SDS011;8643;48.824;11.422;2023-09-19T15:20:13;2.13;;;1.10;;
17052;SDS011;8643;48.824;11.422;2023-09-19T15:22:42;1.63;;;1.25;;
17052;SDS011;8643;48.824;11.422;2023-09-19T15:25:12;1.25;;;1.08;;
17052;SDS011;8643;48.824;11.422;2023-09-19T15:27:42;1.77;;;1.13;;
17052;SDS011;8643;48.824;11.422;2023-09-19T15:30:11;1.67;;;1.10;;
17052;SDS011;8643;48.824;11.422;2023-09-19T15:32:42;2.40;;;1.10;;
17052;SDS011;8643;48.824;11.422;2023-09-19T15:35:12;1.80;;;1.00;;
17052;SDS011;8643;48.824;11.422;2023-09-19T15:37:43;2.10;;;1.00;;
17052;SDS011;8643;48.824;11.422;2023-09-19T15:40:13;1.67;;;1.10;;